sensor_id;sensor_type;location;lat;lon;timestamp;P1;durP1;ratioP1;P2;durP2;ratioP2
33413;SDS011;60055;41.884;12.534;2024-02-16T00:00:48;51.90;;;27.50;;
33413;SDS011;60055;41.884;12.534;2024-02-16T00:03:16;48.55;;;28.25;;
33413;SDS011;60055;41.884;12.534;2024-02-16T00:05:42;55.63;;;27.67;;
33413;SDS011;60055;41.884;12.534;2024-02-16T00:08:08;52.38;;;27.60;;
33413;SDS011;60055;41.884;12.534;2024-02-16T00:10:33;46.72;;;26.30;;
33413;SDS011;60055;41.884;12.534;2024-02-16T00:12:59;49.58;;;26.52;;
33413;SDS011;60055;41.884;12.534;2024-02-16T00:15:24;49.55;;;26.33;;
33413;SDS011;60055;41.884;12.534;2024-02-16T00:17:50;43.85;;;26.30;;
33413;SDS011;60055;41.884;12.534;2024-02-16T00:20:16;49.55;;;26.40;;
33413;SDS011;60055;41.884;12.534;2024-02-16T00:22:42;45.40;;;26.60;;
33413;SDS011;60055;41.884;12.534;2024-02-16T00:25:08;48.00;;;26.23;;
33413;SDS011;60055;41.884;12.534;2024-02-16T00:27:34;48.25;;;26.75;;
33413;SDS011;60055;41.884;12.534;2024-02-16T00:29:59;48.95;;;26.00;;
33413;SDS011;60055;41.884;12.534;2024-02-16T00:32:27;46.83;;;26.23;;
33413;SDS011;60055;41.884;12.534;2024-02-16T00:34:55;44.33;;;25.92;;
33413;SDS011;60055;41.884;12.534;2024-02-16T00:37:22;49.15;;;25.75;;
33413;SDS011;60055;41.884;12.534;2024-02-16T00:39:49;49.85;;;27.40;;
33413;SDS011;60055;41.884;12.534;2024-02-16T00:42:15;42.92;;;25.45;;
33413;SDS011;60055;41.884;12.534;2024-02-16T00:44:41;48.50;;;27.45;;
33413;SDS011;60055;41.884;12.534;2024-02-16T00:47:06;46.50;;;26.55;;
33413;SDS011;60055;41.884;12.534;2024-02-16T00:49:41;49.75;;;26.73;;
33413;SDS011;60055;41.884;12.534;2024-02-16T00:52:10;43.35;;;24.60;;
33413;SDS011;60055;41.884;12.534;2024-02-16T00:54:36;45.97;;;25.35;;
33413;SDS011;60055;41.884;12.534;2024-02-16T00:57:02;44.60;;;26.08;;
33413;SDS011;60055;41.884;12.534;2024-02-16T00:59:30;42.50;;;25.85;;
33413;SDS011;60055;41.884;12.534;2024-02-16T01:01:56;41.97;;;24.42;;
33413;SDS011;60055;41.884;12.534;2024-02-16T01:04:22;41.80;;;24.40;;
33413;SDS011;60055;41.884;12.534;2024-02-16T01:06:48;44.22;;;24.85;;
33413;SDS011;60055;41.884;12.534;2024-02-16T01:09:13;44.63;;;24.15;;
33413;SDS011;60055;41.884;12.534;2024-02-16T01:11:42;36.92;;;23.17;;
33413;SDS011;60055;41.884;12.534;2024-02-16T01:14:08;43.42;;;24.20;;
33413;SDS011;60055;41.884;12.534;2024-02-16T01:16:34;43.08;;;25.10;;
33413;SDS011;60055;41.884;12.534;2024-02-16T01:19:01;45.63;;;24.92;;
33413;SDS011;60055;41.884;12.534;2024-02-16T01:21:27;41.97;;;24.85;;
33413;SDS011;60055;41.884;12.534;2024-02-16T01:23:55;42.45;;;24.70;;
33413;SDS011;60055;41.884;12.534;2024-02-16T01:26:24;42.63;;;24.55;;
33413;SDS011;60055;41.884;12.534;2024-02-16T01:28:50;42.33;;;24.77;;
33413;SDS011;60055;41.884;12.534;2024-02-16T01:31:16;38.13;;;23.00;;
33413;SDS011;60055;41.884;12.534;2024-02-16T01:33:41;43.53;;;24.40;;
33413;SDS011;60055;41.884;12.534;2024-02-16T01:36:07;36.58;;;23.92;;
33413;SDS011;60055;41.884;12.534;2024-02-16T01:38:33;36.35;;;22.40;;
33413;SDS011;60055;41.884;12.534;2024-02-16T01:41:00;44.13;;;24.17;;
33413;SDS011;60055;41.884;12.534;2024-02-16T01:43:29;41.85;;;24.65;;
33413;SDS011;60055;41.884;12.534;2024-02-16T01:46:10;40.38;;;24.30;;
33413;SDS011;60055;41.884;12.534;2024-02-16T01:48:43;39.15;;;23.70;;
33413;SDS011;60055;41.884;12.534;2024-02-16T01:51:18;41.50;;;23.88;;
33413;SDS011;60055;41.884;12.534;2024-02-16T01:53:49;38.20;;;23.40;;
33413;SDS011;60055;41.884;12.534;2024-02-16T01:56:15;36.85;;;23.80;;
33413;SDS011;60055;41.884;12.534;2024-02-16T01:58:41;39.00;;;23.35;;
33413;SDS011;60055;41.884;12.534;2024-02-16T02:01:07;37.08;;;23.95;;
33413;SDS011;60055;41.884;12.534;2024-02-16T02:03:33;39.47;;;23.50;;
33413;SDS011;60055;41.884;12.534;2024-02-16T02:06:00;33.35;;;22.25;;
33413;SDS011;60055;41.884;12.534;2024-02-16T02:08:25;38.25;;;22.55;;
33413;SDS011;60055;41.884;12.534;2024-02-16T02:10:51;39.15;;;23.55;;
33413;SDS011;60055;41.884;12.534;2024-02-16T02:13:17;38.35;;;22.60;;
33413;SDS011;60055;41.884;12.534;2024-02-16T02:15:44;40.88;;;22.42;;
33413;SDS011;60055;41.884;12.534;2024-02-16T02:18:11;34.70;;;22.30;;
33413;SDS011;60055;41.884;12.534;2024-02-16T02:20:36;33.58;;;22.42;;
33413;SDS011;60055;41.884;12.534;2024-02-16T02:23:02;38.08;;;22.33;;
33413;SDS011;60055;41.884;12.534;2024-02-16T02:25:29;38.47;;;21.92;;
33413;SDS011;60055;41.884;12.534;2024-02-16T02:27:55;37.40;;;22.55;;
33413;SDS011;60055;41.884;12.534;2024-02-16T02:30:21;34.53;;;21.23;;
33413;SDS011;60055;41.884;12.534;2024-02-16T02:32:47;37.17;;;22.33;;
33413;SDS011;60055;41.884;12.534;2024-02-16T02:35:19;35.83;;;22.13;;
33413;SDS011;60055;41.884;12.534;2024-02-16T02:37:45;34.95;;;20.70;;
33413;SDS011;60055;41.884;12.534;2024-02-16T02:40:10;37.92;;;21.40;;
33413;SDS011;60055;41.884;12.534;2024-02-16T02:42:37;35.00;;;21.80;;
33413;SDS011;60055;41.884;12.534;2024-02-16T02:45:03;32.47;;;20.65;;
33413;SDS011;60055;41.884;12.534;2024-02-16T02:47:29;38.45;;;22.42;;
33413;SDS011;60055;41.884;12.534;2024-02-16T02:49:55;36.05;;;21.65;;
33413;SDS011;60055;41.884;12.534;2024-02-16T02:52:21;35.83;;;21.02;;
33413;SDS011;60055;41.884;12.534;2024-02-16T02:54:46;32.38;;;21.05;;
33413;SDS011;60055;41.884;12.534;2024-02-16T02:57:12;33.55;;;21.27;;
33413;SDS011;60055;41.884;12.534;2024-02-16T02:59:38;34.28;;;20.77;;
33413;SDS011;60055;41.884;12.534;2024-02-16T03:02:04;35.42;;;21.67;;
33413;SDS011;60055;41.884;12.534;2024-02-16T03:04:29;36.40;;;21.05;;
33413;SDS011;60055;41.884;12.534;2024-02-16T03:06:55;34.63;;;21.77;;
33413;SDS011;60055;41.884;12.534;2024-02-16T03:09:21;32.92;;;20.65;;
33413;SDS011;60055;41.884;12.534;2024-02-16T03:11:47;32.28;;;21.00;;
33413;SDS011;60055;41.884;12.534;2024-02-16T03:14:13;35.88;;;20.65;;
33413;SDS011;60055;41.884;12.534;2024-02-16T03:16:39;34.92;;;21.15;;
33413;SDS011;60055;41.884;12.534;2024-02-16T03:19:05;32.60;;;19.60;;
33413;SDS011;60055;41.884;12.534;2024-02-16T03:21:34;32.15;;;19.20;;
33413;SDS011;60055;41.884;12.534;2024-02-16T03:24:00;30.15;;;18.27;;
33413;SDS011;60055;41.884;12.534;2024-02-16T03:26:27;32.17;;;19.38;;
33413;SDS011;60055;41.884;12.534;2024-02-16T03:28:52;27.52;;;16.33;;
33413;SDS011;60055;41.884;12.534;2024-02-16T03:31:19;27.98;;;16.40;;
33413;SDS011;60055;41.884;12.534;2024-02-16T03:33:46;27.35;;;17.45;;
33413;SDS011;60055;41.884;12.534;2024-02-16T03:36:13;31.33;;;17.35;;
33413;SDS011;60055;41.884;12.534;2024-02-16T03:38:42;29.23;;;16.35;;
33413;SDS011;60055;41.884;12.534;2024-02-16T03:41:15;26.02;;;16.38;;
33413;SDS011;60055;41.884;12.534;2024-02-16T03:43:44;23.85;;;15.35;;
33413;SDS011;60055;41.884;12.534;2024-02-16T03:46:09;26.67;;;15.57;;
33413;SDS011;60055;41.884;12.534;2024-02-16T03:48:35;27.17;;;16.60;;
33413;SDS011;60055;41.884;12.534;2024-02-16T03:51:01;25.92;;;15.75;;
33413;SDS011;60055;41.884;12.534;2024-02-16T03:53:28;26.80;;;15.55;;
33413;SDS011;60055;41.884;12.534;2024-02-16T03:55:54;27.60;;;15.70;;
33413;SDS011;60055;41.884;12.534;2024-02-16T03:58:21;26.23;;;15.57;;
33413;SDS011;60055;41.884;12.534;2024-02-16T04:00:47;26.60;;;16.05;;
33413;SDS011;60055;41.884;12.534;2024-02-16T04:03:14;26.77;;;15.40;;
33413;SDS011;60055;41.884;12.534;2024-02-16T04:05:40;25.45;;;15.40;;
33413;SDS011;60055;41.884;12.534;2024-02-16T04:08:06;24.30;;;15.75;;
33413;SDS011;60055;41.884;12.534;2024-02-16T04:10:32;22.95;;;14.52;;
33413;SDS011;60055;41.884;12.534;2024-02-16T04:12:59;27.58;;;15.65;;
33413;SDS011;60055;41.884;12.534;2024-02-16T04:15:43;24.13;;;15.35;;
33413;SDS011;60055;41.884;12.534;2024-02-16T04:18:08;25.55;;;15.25;;
33413;SDS011;60055;41.884;12.534;2024-02-16T04:20:36;26.55;;;16.00;;
33413;SDS011;60055;41.884;12.534;2024-02-16T04:25:48;25.52;;;15.07;;
33413;SDS011;60055;41.884;12.534;2024-02-16T04:28:14;26.15;;;15.40;;
33413;SDS011;60055;41.884;12.534;2024-02-16T04:30:40;24.40;;;15.32;;
33413;SDS011;60055;41.884;12.534;2024-02-16T04:33:05;24.35;;;15.27;;
33413;SDS011;60055;41.884;12.534;2024-02-16T04:35:31;24.50;;;15.05;;
33413;SDS011;60055;41.884;12.534;2024-02-16T04:37:57;26.10;;;15.68;;
33413;SDS011;60055;41.884;12.534;2024-02-16T04:40:22;23.85;;;15.02;;
33413;SDS011;60055;41.884;12.534;2024-02-16T04:42:48;26.02;;;15.48;;
33413;SDS011;60055;41.884;12.534;2024-02-16T04:45:16;24.15;;;15.63;;
33413;SDS011;60055;41.884;12.534;2024-02-16T04:47:42;27.85;;;16.05;;
33413;SDS011;60055;41.884;12.534;2024-02-16T04:50:08;25.42;;;15.60;;
33413;SDS011;60055;41.884;12.534;2024-02-16T04:52:37;28.05;;;16.05;;
33413;SDS011;60055;41.884;12.534;2024-02-16T04:55:06;24.90;;;15.50;;
33413;SDS011;60055;41.884;12.534;2024-02-16T04:57:33;23.60;;;15.48;;
33413;SDS011;60055;41.884;12.534;2024-02-16T05:00:02;26.67;;;15.40;;
33413;SDS011;60055;41.884;12.534;2024-02-16T05:02:28;27.70;;;16.23;;
33413;SDS011;60055;41.884;12.534;2024-02-16T05:04:54;24.17;;;15.70;;
33413;SDS011;60055;41.884;12.534;2024-02-16T05:07:19;26.63;;;16.15;;
33413;SDS011;60055;41.884;12.534;2024-02-16T05:09:45;29.90;;;16.23;;
33413;SDS011;60055;41.884;12.534;2024-02-16T05:12:11;25.10;;;16.00;;
33413;SDS011;60055;41.884;12.534;2024-02-16T05:14:36;24.50;;;15.52;;
33413;SDS011;60055;41.884;12.534;2024-02-16T05:17:02;29.27;;;16.80;;
33413;SDS011;60055;41.884;12.534;2024-02-16T05:19:31;24.80;;;16.00;;
33413;SDS011;60055;41.884;12.534;2024-02-16T05:21:57;24.05;;;15.30;;
33413;SDS011;60055;41.884;12.534;2024-02-16T05:24:23;29.00;;;16.73;;
33413;SDS011;60055;41.884;12.534;2024-02-16T05:26:48;28.17;;;16.23;;
33413;SDS011;60055;41.884;12.534;2024-02-16T05:29:16;27.85;;;16.50;;
33413;SDS011;60055;41.884;12.534;2024-02-16T05:31:52;26.63;;;15.77;;
33413;SDS011;60055;41.884;12.534;2024-02-16T05:34:18;25.10;;;16.38;;
33413;SDS011;60055;41.884;12.534;2024-02-16T05:36:44;28.02;;;16.48;;
33413;SDS011;60055;41.884;12.534;2024-02-16T05:39:17;27.02;;;16.48;;
33413;SDS011;60055;41.884;12.534;2024-02-16T05:41:51;27.35;;;17.67;;
33413;SDS011;60055;41.884;12.534;2024-02-16T05:44:17;31.33;;;17.02;;
33413;SDS011;60055;41.884;12.534;2024-02-16T05:46:44;28.25;;;17.00;;
33413;SDS011;60055;41.884;12.534;2024-02-16T05:49:10;30.05;;;17.42;;
33413;SDS011;60055;41.884;12.534;2024-02-16T05:51:47;30.02;;;17.42;;
33413;SDS011;60055;41.884;12.534;2024-02-16T05:56:59;29.75;;;17.08;;
33413;SDS011;60055;41.884;12.534;2024-02-16T05:59:25;29.45;;;17.63;;
33413;SDS011;60055;41.884;12.534;2024-02-16T06:01:52;30.10;;;17.52;;
33413;SDS011;60055;41.884;12.534;2024-02-16T06:04:18;27.23;;;17.27;;
33413;SDS011;60055;41.884;12.534;2024-02-16T06:06:43;32.28;;;17.73;;
33413;SDS011;60055;41.884;12.534;2024-02-16T06:09:09;29.90;;;16.90;;
33413;SDS011;60055;41.884;12.534;2024-02-16T06:11:44;28.45;;;18.23;;
33413;SDS011;60055;41.884;12.534;2024-02-16T06:14:09;28.35;;;17.08;;
33413;SDS011;60055;41.884;12.534;2024-02-16T06:16:35;27.85;;;16.73;;
33413;SDS011;60055;41.884;12.534;2024-02-16T06:19:00;27.77;;;17.65;;
33413;SDS011;60055;41.884;12.534;2024-02-16T06:21:39;31.60;;;18.20;;
33413;SDS011;60055;41.884;12.534;2024-02-16T06:24:05;29.10;;;17.35;;
33413;SDS011;60055;41.884;12.534;2024-02-16T06:26:30;29.83;;;16.60;;
33413;SDS011;60055;41.884;12.534;2024-02-16T06:29:01;28.27;;;16.92;;
33413;SDS011;60055;41.884;12.534;2024-02-16T06:31:27;28.10;;;16.75;;
33413;SDS011;60055;41.884;12.534;2024-02-16T06:33:53;28.48;;;17.10;;
33413;SDS011;60055;41.884;12.534;2024-02-16T06:36:18;32.03;;;17.85;;
33413;SDS011;60055;41.884;12.534;2024-02-16T06:38:44;27.92;;;17.05;;
33413;SDS011;60055;41.884;12.534;2024-02-16T06:41:10;29.33;;;16.65;;
33413;SDS011;60055;41.884;12.534;2024-02-16T06:43:40;29.48;;;18.02;;
33413;SDS011;60055;41.884;12.534;2024-02-16T06:46:07;32.42;;;17.35;;
33413;SDS011;60055;41.884;12.534;2024-02-16T06:48:33;30.55;;;17.02;;
33413;SDS011;60055;41.884;12.534;2024-02-16T06:50:58;29.08;;;17.38;;
33413;SDS011;60055;41.884;12.534;2024-02-16T06:53:24;28.20;;;16.80;;
33413;SDS011;60055;41.884;12.534;2024-02-16T06:55:53;29.50;;;18.15;;
33413;SDS011;60055;41.884;12.534;2024-02-16T06:58:22;30.45;;;17.60;;
33413;SDS011;60055;41.884;12.534;2024-02-16T07:00:51;28.35;;;17.77;;
33413;SDS011;60055;41.884;12.534;2024-02-16T07:03:19;31.30;;;18.23;;
33413;SDS011;60055;41.884;12.534;2024-02-16T07:08:35;34.35;;;18.85;;
33413;SDS011;60055;41.884;12.534;2024-02-16T07:11:02;31.10;;;18.83;;
33413;SDS011;60055;41.884;12.534;2024-02-16T07:13:33;30.20;;;17.33;;
33413;SDS011;60055;41.884;12.534;2024-02-16T07:16:19;27.80;;;18.02;;
33413;SDS011;60055;41.884;12.534;2024-02-16T07:18:45;34.53;;;19.00;;
33413;SDS011;60055;41.884;12.534;2024-02-16T07:21:10;32.20;;;18.25;;
33413;SDS011;60055;41.884;12.534;2024-02-16T07:23:36;34.63;;;18.70;;
33413;SDS011;60055;41.884;12.534;2024-02-16T07:26:03;31.55;;;18.73;;
33413;SDS011;60055;41.884;12.534;2024-02-16T07:28:29;33.45;;;19.58;;
33413;SDS011;60055;41.884;12.534;2024-02-16T07:30:54;29.17;;;18.90;;
33413;SDS011;60055;41.884;12.534;2024-02-16T07:33:20;35.53;;;19.70;;
33413;SDS011;60055;41.884;12.534;2024-02-16T07:35:46;37.60;;;19.38;;
33413;SDS011;60055;41.884;12.534;2024-02-16T07:38:15;32.75;;;18.65;;
33413;SDS011;60055;41.884;12.534;2024-02-16T07:40:41;30.60;;;18.40;;
33413;SDS011;60055;41.884;12.534;2024-02-16T07:43:07;39.45;;;20.67;;
33413;SDS011;60055;41.884;12.534;2024-02-16T07:45:33;35.15;;;20.65;;
33413;SDS011;60055;41.884;12.534;2024-02-16T07:48:01;32.88;;;19.63;;
33413;SDS011;60055;41.884;12.534;2024-02-16T07:50:30;34.78;;;20.33;;
33413;SDS011;60055;41.884;12.534;2024-02-16T07:55:55;33.40;;;19.92;;
33413;SDS011;60055;41.884;12.534;2024-02-16T07:58:21;33.45;;;19.45;;
33413;SDS011;60055;41.884;12.534;2024-02-16T08:00:50;36.63;;;20.30;;
33413;SDS011;60055;41.884;12.534;2024-02-16T08:03:17;32.70;;;19.30;;
33413;SDS011;60055;41.884;12.534;2024-02-16T08:05:44;33.58;;;18.20;;
33413;SDS011;60055;41.884;12.534;2024-02-16T08:08:10;30.45;;;17.55;;
33413;SDS011;60055;41.884;12.534;2024-02-16T08:10:35;31.48;;;17.75;;
33413;SDS011;60055;41.884;12.534;2024-02-16T08:13:03;30.88;;;16.73;;
33413;SDS011;60055;41.884;12.534;2024-02-16T08:15:32;30.15;;;16.13;;
33413;SDS011;60055;41.884;12.534;2024-02-16T08:17:57;30.00;;;16.05;;
33413;SDS011;60055;41.884;12.534;2024-02-16T08:20:23;32.72;;;15.93;;
33413;SDS011;60055;41.884;12.534;2024-02-16T08:22:48;29.77;;;16.85;;
33413;SDS011;60055;41.884;12.534;2024-02-16T08:25:14;29.95;;;17.35;;
33413;SDS011;60055;41.884;12.534;2024-02-16T08:27:40;30.65;;;16.80;;
33413;SDS011;60055;41.884;12.534;2024-02-16T08:30:08;38.08;;;17.67;;
33413;SDS011;60055;41.884;12.534;2024-02-16T08:32:34;31.45;;;18.08;;
33413;SDS011;60055;41.884;12.534;2024-02-16T08:34:59;30.58;;;16.95;;
33413;SDS011;60055;41.884;12.534;2024-02-16T08:37:25;35.30;;;17.30;;
33413;SDS011;60055;41.884;12.534;2024-02-16T08:39:51;30.35;;;17.92;;
33413;SDS011;60055;41.884;12.534;2024-02-16T08:42:17;32.38;;;17.88;;
33413;SDS011;60055;41.884;12.534;2024-02-16T08:44:42;29.77;;;17.85;;
33413;SDS011;60055;41.884;12.534;2024-02-16T08:47:08;29.90;;;16.80;;
33413;SDS011;60055;41.884;12.534;2024-02-16T08:49:34;28.10;;;15.80;;
33413;SDS011;60055;41.884;12.534;2024-02-16T08:52:00;31.45;;;17.85;;
33413;SDS011;60055;41.884;12.534;2024-02-16T08:54:25;31.60;;;17.65;;
33413;SDS011;60055;41.884;12.534;2024-02-16T08:56:51;33.92;;;18.33;;
33413;SDS011;60055;41.884;12.534;2024-02-16T08:59:18;31.88;;;17.55;;
33413;SDS011;60055;41.884;12.534;2024-02-16T09:01:43;30.98;;;17.80;;
33413;SDS011;60055;41.884;12.534;2024-02-16T09:04:09;28.98;;;17.05;;
33413;SDS011;60055;41.884;12.534;2024-02-16T09:06:35;39.22;;;18.95;;
33413;SDS011;60055;41.884;12.534;2024-02-16T09:09:04;35.70;;;17.90;;
33413;SDS011;60055;41.884;12.534;2024-02-16T09:11:31;36.40;;;17.58;;
33413;SDS011;60055;41.884;12.534;2024-02-16T09:13:57;36.42;;;17.17;;
33413;SDS011;60055;41.884;12.534;2024-02-16T09:16:22;37.40;;;18.02;;
33413;SDS011;60055;41.884;12.534;2024-02-16T09:18:48;30.25;;;17.10;;
33413;SDS011;60055;41.884;12.534;2024-02-16T09:21:14;28.05;;;17.05;;
33413;SDS011;60055;41.884;12.534;2024-02-16T09:23:39;30.65;;;17.95;;
33413;SDS011;60055;41.884;12.534;2024-02-16T09:26:14;30.00;;;16.80;;
33413;SDS011;60055;41.884;12.534;2024-02-16T09:28:40;30.02;;;16.70;;
33413;SDS011;60055;41.884;12.534;2024-02-16T09:31:09;33.85;;;17.00;;
33413;SDS011;60055;41.884;12.534;2024-02-16T09:33:34;32.50;;;16.85;;
33413;SDS011;60055;41.884;12.534;2024-02-16T09:36:00;36.00;;;16.75;;
33413;SDS011;60055;41.884;12.534;2024-02-16T09:38:26;25.52;;;15.23;;
33413;SDS011;60055;41.884;12.534;2024-02-16T09:40:51;24.65;;;14.90;;
33413;SDS011;60055;41.884;12.534;2024-02-16T09:43:24;25.38;;;14.90;;
33413;SDS011;60055;41.884;12.534;2024-02-16T09:45:56;27.50;;;15.68;;
33413;SDS011;60055;41.884;12.534;2024-02-16T09:48:25;27.00;;;16.50;;
33413;SDS011;60055;41.884;12.534;2024-02-16T09:50:54;25.75;;;15.13;;
33413;SDS011;60055;41.884;12.534;2024-02-16T09:53:21;28.77;;;15.77;;
33413;SDS011;60055;41.884;12.534;2024-02-16T09:55:50;30.27;;;15.38;;
33413;SDS011;60055;41.884;12.534;2024-02-16T09:58:17;32.30;;;16.23;;
33413;SDS011;60055;41.884;12.534;2024-02-16T10:00:50;29.90;;;15.95;;
33413;SDS011;60055;41.884;12.534;2024-02-16T10:03:26;29.92;;;16.63;;
33413;SDS011;60055;41.884;12.534;2024-02-16T10:05:53;31.80;;;15.50;;
33413;SDS011;60055;41.884;12.534;2024-02-16T10:08:29;32.05;;;15.57;;
33413;SDS011;60055;41.884;12.534;2024-02-16T10:11:01;32.88;;;16.65;;
33413;SDS011;60055;41.884;12.534;2024-02-16T10:13:28;31.95;;;16.73;;
33413;SDS011;60055;41.884;12.534;2024-02-16T10:16:03;40.65;;;17.83;;
33413;SDS011;60055;41.884;12.534;2024-02-16T10:18:31;27.30;;;14.93;;
33413;SDS011;60055;41.884;12.534;2024-02-16T10:20:56;21.95;;;12.35;;
33413;SDS011;60055;41.884;12.534;2024-02-16T10:23:22;23.20;;;12.48;;
33413;SDS011;60055;41.884;12.534;2024-02-16T10:25:47;22.65;;;12.85;;
33413;SDS011;60055;41.884;12.534;2024-02-16T10:28:13;23.23;;;12.93;;
33413;SDS011;60055;41.884;12.534;2024-02-16T10:30:39;24.98;;;12.00;;
33413;SDS011;60055;41.884;12.534;2024-02-16T10:33:08;25.52;;;12.65;;
33413;SDS011;60055;41.884;12.534;2024-02-16T10:35:36;24.33;;;13.88;;
33413;SDS011;60055;41.884;12.534;2024-02-16T10:38:03;22.95;;;13.35;;
33413;SDS011;60055;41.884;12.534;2024-02-16T10:40:34;20.10;;;12.88;;
33413;SDS011;60055;41.884;12.534;2024-02-16T10:43:06;24.52;;;12.95;;
33413;SDS011;60055;41.884;12.534;2024-02-16T10:45:33;25.63;;;12.88;;
33413;SDS011;60055;41.884;12.534;2024-02-16T10:48:00;22.10;;;13.55;;
33413;SDS011;60055;41.884;12.534;2024-02-16T10:50:27;22.90;;;12.88;;
33413;SDS011;60055;41.884;12.534;2024-02-16T10:52:53;23.50;;;14.05;;
33413;SDS011;60055;41.884;12.534;2024-02-16T10:55:22;20.45;;;11.90;;
33413;SDS011;60055;41.884;12.534;2024-02-16T10:57:49;23.92;;;14.05;;
33413;SDS011;60055;41.884;12.534;2024-02-16T11:00:17;21.50;;;13.32;;
33413;SDS011;60055;41.884;12.534;2024-02-16T11:02:54;22.63;;;12.68;;
33413;SDS011;60055;41.884;12.534;2024-02-16T11:05:35;24.90;;;12.75;;
33413;SDS011;60055;41.884;12.534;2024-02-16T11:08:17;23.85;;;14.07;;
33413;SDS011;60055;41.884;12.534;2024-02-16T11:11:00;20.83;;;12.43;;
33413;SDS011;60055;41.884;12.534;2024-02-16T11:13:28;26.95;;;13.43;;
33413;SDS011;60055;41.884;12.534;2024-02-16T11:16:01;24.05;;;13.40;;
33413;SDS011;60055;41.884;12.534;2024-02-16T11:18:31;25.70;;;13.43;;
33413;SDS011;60055;41.884;12.534;2024-02-16T11:21:01;24.23;;;13.20;;
33413;SDS011;60055;41.884;12.534;2024-02-16T11:23:27;20.10;;;12.38;;
33413;SDS011;60055;41.884;12.534;2024-02-16T11:26:02;22.48;;;13.50;;
33413;SDS011;60055;41.884;12.534;2024-02-16T11:28:30;21.85;;;11.98;;
33413;SDS011;60055;41.884;12.534;2024-02-16T11:30:57;24.77;;;13.73;;
33413;SDS011;60055;41.884;12.534;2024-02-16T11:33:23;23.38;;;13.40;;
33413;SDS011;60055;41.884;12.534;2024-02-16T11:35:52;20.55;;;12.90;;
33413;SDS011;60055;41.884;12.534;2024-02-16T11:38:25;23.02;;;13.10;;
33413;SDS011;60055;41.884;12.534;2024-02-16T11:43:21;25.88;;;13.88;;
33413;SDS011;60055;41.884;12.534;2024-02-16T11:45:48;24.55;;;14.73;;
33413;SDS011;60055;41.884;12.534;2024-02-16T11:48:18;23.90;;;14.30;;
33413;SDS011;60055;41.884;12.534;2024-02-16T11:50:46;27.55;;;13.95;;
33413;SDS011;60055;41.884;12.534;2024-02-16T11:53:14;24.38;;;15.05;;
33413;SDS011;60055;41.884;12.534;2024-02-16T11:58:12;26.35;;;13.93;;
33413;SDS011;60055;41.884;12.534;2024-02-16T12:00:39;21.70;;;13.50;;
33413;SDS011;60055;41.884;12.534;2024-02-16T12:03:06;23.17;;;13.60;;
33413;SDS011;60055;41.884;12.534;2024-02-16T12:05:32;24.08;;;14.23;;
33413;SDS011;60055;41.884;12.534;2024-02-16T12:07:58;22.52;;;12.75;;
33413;SDS011;60055;41.884;12.534;2024-02-16T12:10:24;23.27;;;13.88;;
33413;SDS011;60055;41.884;12.534;2024-02-16T12:12:52;26.45;;;14.13;;
33413;SDS011;60055;41.884;12.534;2024-02-16T12:15:17;25.27;;;14.55;;
33413;SDS011;60055;41.884;12.534;2024-02-16T12:17:44;20.70;;;12.88;;
33413;SDS011;60055;41.884;12.534;2024-02-16T12:20:11;20.98;;;12.65;;
33413;SDS011;60055;41.884;12.534;2024-02-16T12:22:38;22.27;;;12.63;;
33413;SDS011;60055;41.884;12.534;2024-02-16T12:25:04;19.50;;;12.50;;
33413;SDS011;60055;41.884;12.534;2024-02-16T12:27:30;20.35;;;12.85;;
33413;SDS011;60055;41.884;12.534;2024-02-16T12:29:55;19.38;;;11.50;;
33413;SDS011;60055;41.884;12.534;2024-02-16T12:32:21;24.55;;;14.27;;
33413;SDS011;60055;41.884;12.534;2024-02-16T12:34:46;23.90;;;13.75;;
33413;SDS011;60055;41.884;12.534;2024-02-16T12:37:12;27.08;;;13.82;;
33413;SDS011;60055;41.884;12.534;2024-02-16T12:39:37;21.92;;;12.02;;
33413;SDS011;60055;41.884;12.534;2024-02-16T12:42:03;17.98;;;11.07;;
33413;SDS011;60055;41.884;12.534;2024-02-16T12:44:29;20.98;;;12.20;;
33413;SDS011;60055;41.884;12.534;2024-02-16T12:46:55;19.02;;;12.02;;
33413;SDS011;60055;41.884;12.534;2024-02-16T12:49:21;21.35;;;11.45;;
33413;SDS011;60055;41.884;12.534;2024-02-16T12:51:50;19.08;;;11.32;;
33413;SDS011;60055;41.884;12.534;2024-02-16T12:54:17;18.00;;;10.98;;
33413;SDS011;60055;41.884;12.534;2024-02-16T12:56:47;18.65;;;11.27;;
33413;SDS011;60055;41.884;12.534;2024-02-16T12:59:13;17.40;;;10.50;;
33413;SDS011;60055;41.884;12.534;2024-02-16T13:01:38;20.02;;;10.98;;
33413;SDS011;60055;41.884;12.534;2024-02-16T13:04:05;17.35;;;10.40;;
33413;SDS011;60055;41.884;12.534;2024-02-16T13:06:31;23.15;;;11.57;;
33413;SDS011;60055;41.884;12.534;2024-02-16T13:08:56;17.50;;;10.38;;
33413;SDS011;60055;41.884;12.534;2024-02-16T13:11:22;19.58;;;10.48;;
33413;SDS011;60055;41.884;12.534;2024-02-16T13:13:47;15.93;;;9.65;;
33413;SDS011;60055;41.884;12.534;2024-02-16T13:16:13;17.23;;;9.57;;
33413;SDS011;60055;41.884;12.534;2024-02-16T13:18:39;19.70;;;11.35;;
33413;SDS011;60055;41.884;12.534;2024-02-16T13:21:06;18.70;;;9.85;;
33413;SDS011;60055;41.884;12.534;2024-02-16T13:23:31;16.63;;;9.13;;
33413;SDS011;60055;41.884;12.534;2024-02-16T13:25:57;16.90;;;8.63;;
33413;SDS011;60055;41.884;12.534;2024-02-16T13:28:22;16.35;;;9.43;;
33413;SDS011;60055;41.884;12.534;2024-02-16T13:30:48;19.55;;;9.68;;
33413;SDS011;60055;41.884;12.534;2024-02-16T13:33:14;30.95;;;9.70;;
33413;SDS011;60055;41.884;12.534;2024-02-16T13:35:39;15.70;;;8.32;;
33413;SDS011;60055;41.884;12.534;2024-02-16T13:38:05;15.52;;;8.88;;
33413;SDS011;60055;41.884;12.534;2024-02-16T13:40:30;14.43;;;8.38;;
33413;SDS011;60055;41.884;12.534;2024-02-16T13:42:56;16.65;;;8.20;;
33413;SDS011;60055;41.884;12.534;2024-02-16T13:45:26;15.85;;;8.95;;
33413;SDS011;60055;41.884;12.534;2024-02-16T13:47:53;17.17;;;9.18;;
33413;SDS011;60055;41.884;12.534;2024-02-16T13:50:22;17.10;;;8.77;;
33413;SDS011;60055;41.884;12.534;2024-02-16T13:52:47;17.90;;;9.60;;
33413;SDS011;60055;41.884;12.534;2024-02-16T13:55:15;15.35;;;9.07;;
33413;SDS011;60055;41.884;12.534;2024-02-16T13:57:40;33.88;;;10.77;;
33413;SDS011;60055;41.884;12.534;2024-02-16T14:00:06;22.77;;;10.13;;
33413;SDS011;60055;41.884;12.534;2024-02-16T14:02:42;20.13;;;11.52;;
33413;SDS011;60055;41.884;12.534;2024-02-16T14:05:16;21.83;;;11.05;;
33413;SDS011;60055;41.884;12.534;2024-02-16T14:07:42;22.38;;;10.38;;
33413;SDS011;60055;41.884;12.534;2024-02-16T14:10:07;18.20;;;10.38;;
33413;SDS011;60055;41.884;12.534;2024-02-16T14:12:33;21.02;;;11.27;;
33413;SDS011;60055;41.884;12.534;2024-02-16T14:14:58;24.48;;;11.88;;
33413;SDS011;60055;41.884;12.534;2024-02-16T14:17:24;22.40;;;11.32;;
33413;SDS011;60055;41.884;12.534;2024-02-16T14:19:49;21.42;;;11.98;;
33413;SDS011;60055;41.884;12.534;2024-02-16T14:22:15;23.65;;;12.30;;
33413;SDS011;60055;41.884;12.534;2024-02-16T14:24:40;23.58;;;13.50;;